GOOY

Léopold Sédar Senghor International Airport

Dakar, Senegal
METAR GOOY 210600Z 36010KT 8000 NSC 20/19 Q1012 NOSIG
Observed Flight Rules
May-21 @ 06:00 UTC (an hour ago) Marginal Visual Flight Rules
Wind Visibility Clouds
360° at 10 knots 7,998 meters
  • Clear skies
Temperatures Readings
Current 20°C / 68°F
Dewpoint 19°C / 66°F
Humidity 94%
Altimeter 29.88" Hg
Pressure 1012 hPa
Elevation 24
METAR GOOY 210600Z 36010KT 8000 NSC 20/19 Q1012 NOSIG
Observed Flight Rules
May-21 @ 06:00 UTC
(an hour ago)
MVFR
Wind Visibility
360° at 10 knots 7,998 meters
Clouds
  • Clear skies
Temperature Dewpoint
20°C / 68°F 19°C / 66°F
Humidity Altimeter Pressure
94% 29.88" Hg 1012 hPa